All
Clermont Airport (Clermont, Queensland) CMQ Weather
|
Clermont, Queensland (CMQ / YCMT)
Clear skies
Calm winds |
|
55 °F |
CMQ Terminal Area Forecast
| Date | Time (AEST) | Flight Rules | Wind Dir. | Speed | Type | Height AGL (ft) | Visibility | Remarks | ||||||
|---|---|---|---|---|---|---|---|---|---|---|---|---|---|---|
Recent CMQ METAR history
| Date | Time (AEST) | Flight Rules | Wind Dir. | Speed | Type | Height AGL (ft) | Visibility | Temp (°C) | Temp (°F) | Dew Point (°C) | Dew Point (°F) | Rel. Humid. | Pressure | Density Altitude | Remarks |
|---|---|---|---|---|---|---|---|---|---|---|---|---|---|---|---|
| 03-May | 03:00AM | VFR | Calm | 10000 meters | 13° | 55° | 12° | 53° | 94% | 1017 mb | 556 ft | ||||
| 03-May | 02:00AM | VFR | Calm | 10000 meters | 14° | 57° | 12° | 53° | 88% | 1017 mb | 676 ft | ||||
| 03-May | 01:00AM | VFR | Calm | 10000 meters | 14° | 57° | 12° | 53° | 88% | 1018 mb | 646 ft | ||||
| 03-May | 12:00AM | VFR | Calm | 10000 meters | 15° | 59° | 13° | 55° | 88% | 1018 mb | 766 ft | ||||
| 02-May | 11:00PM | VFR | Calm | Few |
6,200 |
10000 meters | 16° | 60° | 13° | 55° | 82% | 1018 mb | 886 ft | ||
| 02-May | 10:00PM | VFR | Calm | 10000 meters | 16° | 60° | 13° | 55° | 82% | 1018 mb | 886 ft | ||||
| 02-May | 09:00PM | VFR | Calm | 10000 meters | 16° | 60° | 13° | 55° | 82% | 1018 mb | 886 ft | ||||
| 02-May | 08:00PM | VFR | Calm | 10000 meters | 18° | 64° | 13° | 55° | 73% | 1017 mb | 1,156 ft | ||||
| 02-May | 07:00PM | VFR | Calm | 10000 meters | 19° | 66° | 13° | 55° | 68% | 1017 mb | 1,276 ft | ||||
| 02-May | 06:00PM | VFR | 140° | 2 kt | 10000 meters | 25° | 77° | 12° | 53° | 44% | 1016 mb | 2,026 ft | |||
| 02-May | 05:00PM | VFR | 180° | 3 kt | 10000 meters | 28° | 82° | 11° | 51° | 35% | 1016 mb | 2,386 ft | |||
| 02-May | 04:00PM | VFR | 140° | 6 kt | 10000 meters | 28° | 82° | 11° | 51° | 35% | 1015 mb | 2,415 ft | |||
| 02-May | 03:00PM | VFR | 170° | 6 kt | 10000 meters | 29° | 84° | 12° | 53° | 35% | 1015 mb | 2,535 ft | |||
| 02-May | 02:00PM | VFR | 110° | 6 kt | 10000 meters | 28° | 82° | 12° | 53° | 37% | 1016 mb | 2,386 ft | |||
| 02-May | 01:00PM | VFR | 140° | 6 kt | 10000 meters | 28° | 82° | 12° | 53° | 37% | 1017 mb | 2,356 ft | |||
| 02-May | 12:00PM | VFR | 130° | 7 kt | 10000 meters | 27° | 80° | 13° | 55° | 42% | 1018 mb | 2,206 ft | |||
| 02-May | 11:00AM | VFR | 130° | 7 kt | 10000 meters | 25° | 77° | 14° | 57° | 50% | 1019 mb | 1,937 ft | |||
| 02-May | 10:00AM | VFR | 130° | 5 kt | 10000 meters | 24° | 75° | 16° | 60° | 61% | 1020 mb | 1,787 ft | |||
| 02-May | 09:00AM | VFR | 150° | 6 kt | 10000 meters | 20° | 68° | 16° | 60° | 78% | 1020 mb | 1,307 ft | |||
| 02-May | 08:00AM | VFR | 140° | 4 kt | 10000 meters | 18° | 64° | 16° | 60° | 88% | 1020 mb | 1,067 ft | |||
| 02-May | 07:00AM | VFR | 190° | 2 kt | 10000 meters | 14° | 57° | 13° | 55° | 94% | 1019 mb | 617 ft | |||
| 02-May | 06:00AM | VFR | 200° | 2 kt | 10000 meters | 13° | 55° | 12° | 53° | 94% | 1019 mb | 497 ft | |||
| 02-May | 05:00AM | VFR | 190° | 3 kt | 10000 meters | 13° | 55° | 12° | 53° | 94% | 1018 mb | 526 ft | |||
| 02-May | 04:00AM | VFR | 190° | 2 kt | 10000 meters | 14° | 57° | 13° | 55° | 94% | 1018 mb | 646 ft |
Login
| Your browser is unsupported. upgrade your browser |
